createdAt,value
2022-11-10T00:02:13.962Z,82.60
2022-11-10T00:07:36.031Z,82.80
2022-11-10T00:13:02.474Z,83.00
2022-11-10T00:18:26.063Z,83.10
2022-11-10T00:23:48.593Z,82.60
2022-11-10T00:29:10.664Z,82.80
2022-11-10T00:34:34.838Z,82.70
2022-11-10T00:39:56.916Z,82.80
2022-11-10T00:45:19.126Z,83.40
2022-11-10T00:50:43.526Z,83.10
2022-11-10T00:56:06.163Z,83.50
2022-11-10T01:01:28.683Z,83.30
2022-11-10T01:06:53.192Z,82.90
2022-11-10T01:12:15.689Z,82.60
2022-11-10T01:17:38.079Z,82.40
2022-11-10T01:23:02.493Z,82.30
2022-11-10T01:28:25.189Z,82.30
2022-11-10T01:33:47.827Z,82.20
2022-11-10T01:39:11.327Z,82.30
2022-11-10T01:44:33.528Z,82.20
2022-11-10T01:49:56.080Z,82.30
2022-11-10T01:55:20.072Z,82.40
2022-11-10T02:00:43.200Z,82.60
2022-11-10T02:06:08.224Z,82.70
2022-11-10T02:11:33.964Z,82.70
2022-11-10T02:16:56.492Z,82.70
2022-11-10T02:22:20.305Z,82.80
2022-11-10T02:27:42.756Z,82.80
2022-11-10T02:33:04.971Z,83.00
2022-11-10T02:38:28.422Z,83.10
2022-11-10T02:43:50.845Z,83.40
2022-11-10T02:49:13.044Z,83.40
2022-11-10T02:54:36.919Z,83.50
2022-11-10T02:59:58.917Z,83.70
2022-11-10T03:05:20.987Z,84.00
2022-11-10T03:10:44.854Z,84.20
2022-11-10T03:16:07.735Z,84.20
2022-11-10T03:21:29.652Z,84.20
2022-11-10T03:26:53.176Z,84.20
2022-11-10T03:32:15.157Z,83.90
2022-11-10T03:37:37.604Z,84.00
2022-11-10T03:43:00.958Z,84.00
2022-11-10T03:48:23.051Z,83.80
2022-11-10T03:53:45.390Z,84.20
2022-11-10T03:59:08.881Z,84.00
2022-11-10T04:04:48.520Z,84.20
2022-11-10T04:10:11.414Z,83.60
2022-11-10T04:15:43.934Z,83.10
2022-11-10T04:21:06.784Z,82.90
2022-11-10T04:26:33.269Z,82.70
2022-11-10T04:31:58.601Z,82.40
2022-11-10T04:37:22.081Z,82.60
2022-11-10T04:42:44.348Z,82.50
2022-11-10T04:48:08.286Z,82.50
2022-11-10T04:53:30.604Z,82.60
2022-11-10T04:58:53.103Z,82.60
2022-11-10T05:04:16.481Z,82.70
2022-11-10T05:09:38.419Z,82.70
2022-11-10T05:15:00.437Z,82.80
2022-11-10T05:20:26.428Z,83.10
2022-11-10T05:25:48.823Z,83.20
2022-11-10T05:31:12.765Z,83.30
2022-11-10T05:36:36.420Z,83.20
2022-11-10T05:41:58.639Z,81.90
2022-11-10T05:47:20.636Z,81.70
2022-11-10T05:52:50.375Z,81.80
2022-11-10T05:58:12.869Z,81.50
2022-11-10T06:03:35.012Z,81.50
2022-11-10T06:08:59.456Z,81.30
2022-11-10T06:14:21.806Z,81.30
2022-11-10T06:19:44.095Z,81.40
2022-11-10T06:25:09.987Z,81.30
2022-11-10T06:30:35.913Z,81.30
2022-11-10T06:35:58.074Z,81.40
2022-11-10T06:41:25.320Z,81.30
2022-11-10T06:46:47.848Z,81.30
2022-11-10T06:52:10.032Z,81.20
2022-11-10T06:57:40.002Z,81.20
2022-11-10T07:03:04.014Z,81.40
2022-11-10T07:08:26.380Z,81.30
2022-11-10T07:13:49.974Z,81.30
2022-11-10T07:19:11.849Z,81.40
2022-11-10T07:24:33.987Z,82.40
2022-11-10T07:29:57.381Z,83.00
2022-11-10T07:35:19.643Z,82.50
2022-11-10T07:40:41.769Z,80.40
2022-11-10T07:46:05.317Z,79.20
2022-11-10T07:51:28.119Z,78.10
2022-11-10T07:56:50.087Z,77.40
2022-11-10T08:02:13.962Z,76.30
2022-11-10T08:07:36.259Z,75.60
2022-11-10T08:13:01.313Z,74.90
2022-11-10T08:18:27.644Z,74.20
2022-11-10T08:23:53.195Z,73.70
2022-11-10T08:29:15.533Z,74.40
2022-11-10T08:34:39.040Z,73.30
2022-11-10T08:40:01.275Z,73.80
2022-11-10T08:45:23.319Z,72.70
2022-11-10T08:50:47.932Z,72.50
2022-11-10T08:56:10.096Z,72.10
2022-11-10T09:01:32.529Z,71.90
2022-11-10T09:06:57.924Z,71.60
2022-11-10T09:12:20.669Z,71.30
2022-11-10T09:17:43.238Z,72.20
2022-11-10T09:23:12.654Z,72.90
2022-11-10T09:28:34.963Z,73.30
2022-11-10T09:33:59.300Z,73.80
2022-11-10T09:39:22.632Z,74.40
2022-11-10T09:44:52.580Z,74.90
2022-11-10T09:50:23.325Z,75.20
2022-11-10T09:55:51.499Z,79.40
2022-11-10T10:01:32.151Z,82.40
2022-11-10T10:07:11.010Z,82.20
2022-11-10T10:13:09.538Z,80.70
2022-11-10T10:18:42.436Z,80.50
2022-11-10T10:24:11.380Z,81.00
2022-11-10T10:29:45.146Z,81.20
2022-11-10T10:35:10.494Z,81.30
2022-11-10T10:40:32.515Z,81.20
2022-11-10T10:46:09.626Z,81.10
2022-11-10T10:51:32.775Z,81.00
2022-11-10T10:57:06.723Z,80.90
2022-11-10T11:02:33.219Z,81.00
2022-11-10T11:07:58.300Z,80.90
2022-11-10T11:13:26.168Z,80.70
2022-11-10T11:18:49.980Z,80.70
2022-11-10T11:24:35.065Z,80.60
2022-11-10T11:30:21.552Z,80.60
2022-11-10T11:35:52.640Z,80.60
2022-11-10T11:41:30.365Z,80.50
2022-11-10T11:47:05.663Z,80.50
2022-11-10T11:52:38.609Z,80.60
2022-11-10T11:58:25.976Z,80.60
2022-11-10T12:04:32.761Z,80.60
2022-11-10T12:10:11.462Z,80.70
2022-11-10T12:15:48.431Z,80.70
2022-11-10T12:21:27.921Z,80.70
2022-11-10T12:26:59.788Z,80.70
2022-11-10T12:32:33.331Z,80.50
2022-11-10T12:38:01.693Z,80.50
2022-11-10T12:43:36.935Z,80.00
2022-11-10T12:49:19.808Z,79.90
2022-11-10T12:54:44.559Z,80.10
2022-11-10T13:00:27.923Z,80.10
2022-11-10T13:05:58.449Z,79.60
2022-11-10T13:11:29.322Z,79.60
2022-11-10T13:16:56.524Z,79.60
2022-11-10T13:22:40.720Z,79.60
2022-11-10T13:28:03.584Z,79.70
2022-11-10T13:33:38.170Z,79.80
2022-11-10T13:39:24.636Z,79.80
2022-11-10T13:44:47.959Z,79.80
2022-11-10T13:50:30.781Z,79.80
2022-11-10T13:56:11.926Z,80.60
2022-11-10T14:01:34.275Z,79.90
2022-11-10T14:06:59.707Z,79.90
2022-11-10T14:12:35.077Z,79.90
2022-11-10T14:17:58.489Z,79.80
2022-11-10T14:23:28.511Z,79.90
2022-11-10T14:28:51.457Z,79.90
2022-11-10T14:34:18.668Z,79.90
2022-11-10T14:39:43.540Z,79.90
2022-11-10T14:45:18.795Z,79.90
2022-11-10T14:50:43.139Z,79.80
2022-11-10T14:56:15.852Z,79.90
2022-11-10T15:01:42.428Z,79.90
2022-11-10T15:07:07.113Z,79.90
2022-11-10T15:12:30.880Z,79.90
2022-11-10T15:17:53.829Z,79.80
2022-11-10T15:23:33.788Z,79.80
2022-11-10T15:28:58.187Z,78.50
2022-11-10T15:34:44.465Z,77.60
2022-11-10T15:40:35.390Z,77.30
2022-11-10T15:46:03.088Z,77.00
2022-11-10T15:51:26.492Z,77.40
2022-11-10T15:56:49.255Z,78.50
2022-11-10T16:02:22.295Z,80.40
2022-11-10T16:07:44.653Z,81.20
2022-11-10T16:13:07.247Z,81.70
2022-11-10T16:18:43.529Z,81.80
2022-11-10T16:24:07.447Z,82.50
2022-11-10T16:29:29.780Z,82.70
2022-11-10T16:34:53.876Z,83.00
2022-11-10T16:40:48.669Z,81.90
2022-11-10T16:46:21.459Z,81.00
2022-11-10T16:51:48.758Z,79.40
2022-11-10T16:57:15.697Z,78.90
2022-11-10T17:02:39.817Z,78.70
2022-11-10T17:08:04.574Z,78.40
2022-11-10T17:13:27.088Z,77.60
2022-11-10T17:18:49.687Z,77.70
2022-11-10T17:24:15.499Z,78.30
2022-11-10T17:29:37.601Z,78.60
2022-11-10T17:34:59.616Z,78.80
2022-11-10T17:40:26.880Z,79.40
2022-11-10T17:45:49.369Z,79.60
2022-11-10T17:51:18.321Z,79.70
2022-11-10T17:56:41.718Z,79.80
2022-11-10T18:02:03.921Z,80.60
2022-11-10T18:07:26.182Z,80.80
2022-11-10T18:12:49.570Z,80.90
2022-11-10T18:18:14.285Z,81.00
2022-11-10T18:23:36.551Z,81.00
2022-11-10T18:28:59.900Z,81.00
2022-11-10T18:34:22.143Z,81.10
2022-11-10T18:39:45.265Z,81.10
2022-11-10T18:45:11.162Z,81.10
2022-11-10T18:50:34.071Z,81.10
2022-11-10T18:55:56.259Z,81.10
2022-11-10T19:01:19.856Z,81.10
2022-11-10T19:06:42.401Z,81.10
2022-11-10T19:12:05.512Z,81.10
2022-11-10T19:17:28.975Z,81.50
2022-11-10T19:22:50.992Z,81.00
2022-11-10T19:28:13.887Z,80.30
2022-11-10T19:33:40.722Z,79.40
2022-11-10T19:39:02.722Z,78.90
2022-11-10T19:44:24.654Z,78.50
2022-11-10T19:49:47.930Z,78.50
2022-11-10T19:55:10.149Z,78.50
2022-11-10T20:00:32.373Z,79.30
2022-11-10T20:06:02.193Z,78.60
2022-11-10T20:11:27.090Z,79.00
2022-11-10T20:16:49.183Z,79.30
2022-11-10T20:22:12.946Z,79.30
2022-11-10T20:27:35.339Z,79.40
2022-11-10T20:32:57.554Z,79.40
2022-11-10T20:38:20.919Z,79.50
2022-11-10T20:43:43.494Z,79.80
2022-11-10T20:49:05.648Z,79.90
2022-11-10T20:54:29.267Z,79.90
2022-11-10T20:59:51.553Z,80.00
2022-11-10T21:05:13.491Z,79.90
2022-11-10T21:10:37.106Z,80.00
2022-11-10T21:16:02.698Z,80.00
2022-11-10T21:21:34.038Z,80.30
2022-11-10T21:26:58.731Z,80.30
2022-11-10T21:32:20.633Z,80.60
2022-11-10T21:37:42.557Z,80.50
2022-11-10T21:43:06.079Z,80.60
2022-11-10T21:48:28.159Z,80.40
2022-11-10T21:53:50.585Z,80.40
2022-11-10T21:59:13.731Z,80.30
2022-11-10T22:04:36.040Z,80.30
2022-11-10T22:10:15.740Z,80.20
2022-11-10T22:16:13.655Z,80.00
2022-11-10T22:21:36.038Z,80.20
2022-11-10T22:27:01.119Z,80.50
2022-11-10T22:32:24.585Z,80.50
2022-11-10T22:37:46.736Z,80.00
2022-11-10T22:43:28.913Z,79.40
2022-11-10T22:48:52.699Z,79.20
2022-11-10T22:54:18.059Z,79.10
2022-11-10T22:59:40.474Z,78.80
2022-11-10T23:05:03.885Z,79.60
2022-11-10T23:10:26.166Z,79.80
2022-11-10T23:15:52.165Z,79.90
2022-11-10T23:21:19.342Z,80.20
2022-11-10T23:26:41.245Z,80.30
2022-11-10T23:32:03.398Z,80.30
2022-11-10T23:37:26.767Z,80.50
2022-11-10T23:42:48.984Z,80.60
2022-11-10T23:48:11.163Z,80.90
2022-11-10T23:53:35.323Z,80.90
2022-11-10T23:58:57.383Z,81.00
